createdAt,value
2017-12-16T00:02:02.600Z,18.33
2017-12-16T00:04:30.930Z,18.30
2017-12-16T00:07:00.077Z,24.07
2017-12-16T00:09:28.436Z,15.53
2017-12-16T00:11:57.563Z,17.40
2017-12-16T00:14:25.971Z,17.37
2017-12-16T00:16:54.299Z,24.10
2017-12-16T00:19:22.655Z,20.10
2017-12-16T00:21:51.776Z,21.93
2017-12-16T00:24:20.208Z,16.87
2017-12-16T00:26:48.604Z,22.30
2017-12-16T00:29:16.960Z,18.07
2017-12-16T00:31:45.332Z,15.43
2017-12-16T00:34:13.714Z,22.87
2017-12-16T00:36:42.125Z,21.53
2017-12-16T00:39:10.501Z,20.93
2017-12-16T00:41:38.880Z,30.60
2017-12-16T00:44:07.202Z,27.50
2017-12-16T00:46:35.534Z,25.03
2017-12-16T00:49:03.925Z,32.60
2017-12-16T00:51:33.098Z,21.53
2017-12-16T00:54:01.467Z,23.43
2017-12-16T00:56:29.805Z,25.77
2017-12-16T00:58:58.909Z,22.90
2017-12-16T01:01:27.267Z,22.07
2017-12-16T01:03:55.671Z,15.80
2017-12-16T01:06:24.026Z,22.77
2017-12-16T01:08:53.197Z,23.43
2017-12-16T01:11:23.608Z,25.03
2017-12-16T01:13:51.955Z,30.93
2017-12-16T01:16:20.310Z,23.90
2017-12-16T01:18:48.659Z,26.17
2017-12-16T01:21:17.044Z,22.13
2017-12-16T01:23:45.396Z,26.77
2017-12-16T01:26:13.720Z,23.50
2017-12-16T01:28:42.087Z,29.93
2017-12-16T01:31:10.423Z,26.23
2017-12-16T01:33:50.699Z,22.00
2017-12-16T01:36:30.901Z,27.70
2017-12-16T01:39:00.011Z,27.80
2017-12-16T01:41:28.352Z,28.50
2017-12-16T01:43:57.502Z,31.70
2017-12-16T01:46:25.840Z,25.97
2017-12-16T01:48:54.238Z,21.27
2017-12-16T01:51:23.358Z,26.53
2017-12-16T01:53:51.751Z,26.03
2017-12-16T01:56:20.075Z,20.73
2017-12-16T01:58:48.424Z,24.07
2017-12-16T02:01:16.774Z,17.03
2017-12-16T02:03:45.185Z,17.90
2017-12-16T02:06:13.560Z,21.47
2017-12-16T02:08:41.917Z,17.00
2017-12-16T02:11:10.274Z,19.23
2017-12-16T02:13:38.656Z,23.30
2017-12-16T02:16:07.043Z,16.50
2017-12-16T02:18:35.415Z,20.53
2017-12-16T02:21:03.789Z,21.37
2017-12-16T02:23:32.185Z,18.80
2017-12-16T02:26:00.593Z,21.97
2017-12-16T02:28:28.952Z,19.90
2017-12-16T02:30:57.359Z,24.70
2017-12-16T02:33:25.769Z,21.23
2017-12-16T02:35:54.169Z,17.10
2017-12-16T02:38:22.577Z,19.07
2017-12-16T02:40:50.933Z,23.40
2017-12-16T02:43:19.402Z,20.67
2017-12-16T02:45:47.742Z,18.13
2017-12-16T02:48:16.154Z,18.80
2017-12-16T02:50:44.484Z,16.60
2017-12-16T02:53:12.862Z,21.37
2017-12-16T02:55:41.229Z,21.97
2017-12-16T02:58:09.577Z,21.30
2017-12-16T03:00:38.772Z,26.67
2017-12-16T03:03:07.157Z,21.47
2017-12-16T03:05:36.327Z,21.43
2017-12-16T03:08:04.868Z,21.67
2017-12-16T03:10:34.115Z,22.10
2017-12-16T03:13:02.475Z,22.70
2017-12-16T03:15:30.907Z,23.13
2017-12-16T03:17:59.282Z,22.40
2017-12-16T03:20:28.466Z,22.10
2017-12-16T03:22:57.613Z,26.73
2017-12-16T03:25:26.051Z,26.73
2017-12-16T03:28:09.533Z,26.77
2017-12-16T03:30:37.922Z,32.77
2017-12-16T03:33:06.285Z,26.70
2017-12-16T03:35:34.671Z,28.27
2017-12-16T03:38:03.022Z,24.97
2017-12-16T03:40:31.390Z,22.50
2017-12-16T03:42:59.804Z,28.00
2017-12-16T03:45:28.233Z,25.30
2017-12-16T03:47:57.360Z,27.70
2017-12-16T03:50:25.897Z,27.67
2017-12-16T03:52:54.281Z,26.77
2017-12-16T03:55:22.771Z,29.67
2017-12-16T03:57:51.936Z,33.87
2017-12-16T04:00:20.335Z,33.07
2017-12-16T04:02:48.703Z,37.63
2017-12-16T04:05:17.109Z,29.30
2017-12-16T04:07:46.217Z,30.70
2017-12-16T04:10:15.357Z,27.57
2017-12-16T04:12:43.710Z,28.93
2017-12-16T04:15:12.081Z,28.00
2017-12-16T04:17:41.504Z,34.50
2017-12-16T04:20:09.878Z,35.87
2017-12-16T04:22:38.351Z,37.13
2017-12-16T04:25:06.734Z,31.70
2017-12-16T04:27:35.091Z,36.53
2017-12-16T04:30:04.253Z,45.27
2017-12-16T04:32:32.629Z,40.67
2017-12-16T04:35:00.989Z,37.23
2017-12-16T04:37:29.386Z,41.10
2017-12-16T04:39:57.722Z,53.73
2017-12-16T04:42:29.389Z,54.40
2017-12-16T04:44:57.760Z,40.93
2017-12-16T04:47:26.909Z,65.43
2017-12-16T04:49:55.242Z,45.67
2017-12-16T04:52:23.607Z,38.87
2017-12-16T04:54:54.656Z,43.93
2017-12-16T04:57:23.856Z,42.77
2017-12-16T04:59:53.064Z,42.17
2017-12-16T05:02:21.446Z,47.03
2017-12-16T05:04:49.828Z,53.80
2017-12-16T05:07:18.925Z,45.83
2017-12-16T05:09:47.296Z,52.87
2017-12-16T05:12:16.387Z,57.47
2017-12-16T05:14:45.518Z,45.50
2017-12-16T05:17:13.873Z,50.10
2017-12-16T05:19:42.256Z,56.47
2017-12-16T05:22:11.356Z,46.83
2017-12-16T05:24:41.375Z,42.17
2017-12-16T05:27:09.742Z,46.93
2017-12-16T05:29:38.869Z,48.20
2017-12-16T05:32:07.234Z,40.90
2017-12-16T05:34:35.607Z,54.60
2017-12-16T05:37:03.978Z,48.73
2017-12-16T05:39:32.360Z,50.90
2017-12-16T05:42:00.702Z,47.73
2017-12-16T05:44:29.076Z,49.90
2017-12-16T05:46:57.432Z,51.83
2017-12-16T05:49:25.809Z,43.73
2017-12-16T05:51:54.157Z,50.27
2017-12-16T05:54:22.589Z,53.53
2017-12-16T05:56:50.968Z,55.20
2017-12-16T05:59:19.365Z,51.47
2017-12-16T06:01:47.732Z,51.10
2017-12-16T06:04:16.081Z,47.40
2017-12-16T06:06:45.217Z,45.07
2017-12-16T06:09:13.572Z,45.03
2017-12-16T06:11:41.950Z,40.10
2017-12-16T06:14:10.312Z,46.67
2017-12-16T06:16:38.662Z,36.07
2017-12-16T06:19:07.033Z,37.60
2017-12-16T06:21:36.225Z,37.80
2017-12-16T06:24:04.576Z,43.97
2017-12-16T06:26:32.913Z,35.10
2017-12-16T06:29:01.273Z,35.03
2017-12-16T06:31:30.395Z,25.60
2017-12-16T06:33:58.769Z,30.63
2017-12-16T06:36:27.109Z,22.83
2017-12-16T06:38:55.485Z,25.30
2017-12-16T06:41:23.845Z,27.33
2017-12-16T06:43:52.263Z,27.13
2017-12-16T06:46:20.639Z,24.53
2017-12-16T06:48:49.738Z,31.87
2017-12-16T06:51:18.088Z,32.93
2017-12-16T06:53:46.463Z,24.93
2017-12-16T06:56:14.838Z,23.23
2017-12-16T06:58:43.230Z,21.17
2017-12-16T07:01:11.577Z,20.43
2017-12-16T07:03:39.919Z,20.60
2017-12-16T07:06:09.062Z,19.80
2017-12-16T07:08:37.419Z,18.43
2017-12-16T07:11:06.721Z,19.37
2017-12-16T07:13:35.812Z,13.43
2017-12-16T07:16:04.920Z,16.83
2017-12-16T07:18:33.293Z,18.60
2017-12-16T07:21:01.659Z,13.77
2017-12-16T07:23:30.009Z,15.50
2017-12-16T07:25:58.417Z,19.13
2017-12-16T07:28:26.760Z,15.17
2017-12-16T07:30:55.105Z,14.30
2017-12-16T07:33:23.494Z,15.63
2017-12-16T07:35:51.857Z,14.90
2017-12-16T07:38:21.003Z,16.00
2017-12-16T07:40:49.333Z,17.83
2017-12-16T07:43:17.693Z,21.73
2017-12-16T07:45:46.783Z,15.83
2017-12-16T07:48:15.897Z,13.80
2017-12-16T07:50:45.016Z,18.23
2017-12-16T07:53:13.357Z,24.33
2017-12-16T07:55:42.446Z,19.40
2017-12-16T07:58:10.821Z,33.80
2017-12-16T08:00:39.158Z,23.10
2017-12-16T08:03:07.578Z,22.03
2017-12-16T08:05:36.706Z,15.40
2017-12-16T08:08:05.057Z,11.13
2017-12-16T08:10:34.190Z,12.17
2017-12-16T08:13:02.518Z,16.23
2017-12-16T08:15:30.869Z,10.20
2017-12-16T08:17:59.220Z,11.43
2017-12-16T08:20:27.585Z,14.73
2017-12-16T08:22:56.706Z,11.23
2017-12-16T08:25:25.059Z,27.33
2017-12-16T08:27:54.185Z,28.97
2017-12-16T08:30:22.564Z,12.83
2017-12-16T08:32:50.903Z,12.17
2017-12-16T08:35:20.047Z,8.97
2017-12-16T08:37:48.379Z,9.80
2017-12-16T08:40:16.709Z,9.60
2017-12-16T08:42:45.820Z,12.53
2017-12-16T08:45:14.150Z,11.20
2017-12-16T08:47:43.268Z,5.33
2017-12-16T08:50:11.573Z,5.60
2017-12-16T08:52:39.996Z,7.43
2017-12-16T08:55:09.092Z,9.33
2017-12-16T08:57:37.491Z,12.13
2017-12-16T09:00:05.892Z,14.03
2017-12-16T09:02:34.244Z,9.33
2017-12-16T09:05:03.358Z,12.03
2017-12-16T09:07:31.689Z,10.70
2017-12-16T09:10:00.061Z,16.90
2017-12-16T09:12:28.398Z,10.73
2017-12-16T09:14:56.762Z,8.90
2017-12-16T09:17:25.842Z,9.90
2017-12-16T09:19:54.953Z,9.83
2017-12-16T09:22:24.061Z,10.90
2017-12-16T09:24:52.421Z,9.17
2017-12-16T09:27:20.799Z,9.33
2017-12-16T09:29:49.119Z,9.57
2017-12-16T09:32:17.455Z,9.30
2017-12-16T09:34:45.778Z,7.60
2017-12-16T09:37:14.144Z,11.07
2017-12-16T09:39:42.511Z,12.93
2017-12-16T09:42:11.634Z,14.53
2017-12-16T09:44:39.970Z,14.03
2017-12-16T09:47:09.089Z,16.60
2017-12-16T09:49:37.435Z,14.60
2017-12-16T09:52:15.408Z,14.20
2017-12-16T09:54:43.725Z,17.33
2017-12-16T09:57:12.079Z,10.87
2017-12-16T09:59:40.430Z,11.63
2017-12-16T10:02:08.919Z,12.33
2017-12-16T10:04:37.574Z,23.10
2017-12-16T10:07:06.210Z,19.70
2017-12-16T10:09:34.587Z,16.13
2017-12-16T10:12:02.957Z,15.60
2017-12-16T10:14:31.297Z,17.67
2017-12-16T10:16:59.661Z,23.27
2017-12-16T10:19:28.754Z,36.60
2017-12-16T10:24:57.094Z,32.60
2017-12-16T10:27:25.482Z,19.03
2017-12-16T10:29:53.886Z,15.30
2017-12-16T10:32:22.240Z,20.60
2017-12-16T10:34:53.654Z,31.03
2017-12-16T10:37:22.777Z,18.67
2017-12-16T10:39:51.101Z,33.73
2017-12-16T10:42:20.482Z,31.43
2017-12-16T10:44:48.824Z,19.37
2017-12-16T10:47:17.215Z,16.43
2017-12-16T10:49:45.531Z,22.00
2017-12-16T10:52:13.894Z,17.57
2017-12-16T10:54:42.254Z,16.80
2017-12-16T10:57:10.659Z,18.57
2017-12-16T10:59:39.015Z,19.13
2017-12-16T11:02:07.379Z,16.53
2017-12-16T11:04:35.732Z,18.20
2017-12-16T11:07:04.107Z,16.83
2017-12-16T11:09:32.433Z,20.20
2017-12-16T11:12:00.811Z,20.67
2017-12-16T11:14:29.156Z,15.03
2017-12-16T11:16:58.288Z,16.10
2017-12-16T11:19:26.678Z,19.57
2017-12-16T11:21:55.071Z,27.07
2017-12-16T11:24:23.438Z,18.63
2017-12-16T11:26:51.812Z,28.97
2017-12-16T11:29:20.176Z,25.57
2017-12-16T11:31:48.535Z,26.27
2017-12-16T11:34:16.939Z,23.10
2017-12-16T11:36:45.292Z,23.43
2017-12-16T11:39:14.375Z,21.77
2017-12-16T11:44:44.671Z,20.57
2017-12-16T11:47:13.037Z,17.43
2017-12-16T11:49:41.449Z,21.17
2017-12-16T11:52:09.824Z,19.93
2017-12-16T11:54:38.188Z,21.93
2017-12-16T11:57:06.548Z,73.47
2017-12-16T11:59:34.900Z,46.47
2017-12-16T12:02:04.077Z,38.23
2017-12-16T12:04:32.404Z,29.77
2017-12-16T12:07:00.765Z,22.87
2017-12-16T12:09:29.121Z,20.60
2017-12-16T12:11:57.493Z,24.43
2017-12-16T12:14:25.813Z,22.20
2017-12-16T12:16:54.933Z,20.60
2017-12-16T12:19:23.278Z,27.67
2017-12-16T12:21:52.398Z,19.57
2017-12-16T12:24:20.755Z,25.67
2017-12-16T12:26:50.036Z,24.20
2017-12-16T12:29:18.369Z,20.37
2017-12-16T12:31:46.686Z,20.67
2017-12-16T12:34:15.049Z,21.47
2017-12-16T12:36:43.414Z,24.37
2017-12-16T12:39:11.759Z,26.10
2017-12-16T12:41:44.817Z,24.50
2017-12-16T12:44:13.173Z,24.77
2017-12-16T12:46:41.519Z,24.97
2017-12-16T12:49:09.848Z,23.87
2017-12-16T12:51:38.209Z,34.47
2017-12-16T12:54:06.558Z,32.47
2017-12-16T12:56:34.886Z,39.17
2017-12-16T12:59:03.246Z,27.17
2017-12-16T13:01:37.773Z,25.73
2017-12-16T13:04:06.121Z,28.27
2017-12-16T13:06:34.432Z,25.17
2017-12-16T13:09:02.766Z,31.80
2017-12-16T13:11:31.837Z,28.47
2017-12-16T13:14:00.177Z,31.63
2017-12-16T13:16:28.491Z,27.70
2017-12-16T13:18:56.820Z,25.63
2017-12-16T13:21:25.135Z,24.60
2017-12-16T13:23:53.487Z,25.27
2017-12-16T13:26:21.822Z,25.93
2017-12-16T13:28:50.897Z,29.33
2017-12-16T13:31:19.237Z,27.63
2017-12-16T13:33:47.550Z,19.73
2017-12-16T13:36:15.907Z,23.20
2017-12-16T13:38:44.228Z,23.03
2017-12-16T13:41:13.330Z,28.00
2017-12-16T13:43:42.416Z,23.80
2017-12-16T13:46:11.532Z,25.93
2017-12-16T13:48:40.629Z,27.40
2017-12-16T13:51:09.733Z,27.10
2017-12-16T13:53:38.069Z,26.70
2017-12-16T13:56:06.413Z,27.20
2017-12-16T13:58:34.724Z,29.10
2017-12-16T14:03:56.965Z,25.77
2017-12-16T14:06:25.301Z,23.03
2017-12-16T14:08:53.651Z,30.87
2017-12-16T14:11:22.021Z,27.77
2017-12-16T14:13:50.333Z,25.90
2017-12-16T14:16:19.409Z,31.33
2017-12-16T14:18:47.749Z,26.20
2017-12-16T14:21:16.080Z,30.00
2017-12-16T14:23:45.188Z,34.40
2017-12-16T14:26:13.501Z,29.27
2017-12-16T14:28:41.877Z,29.87
2017-12-16T14:31:10.202Z,29.73
2017-12-16T14:33:39.305Z,29.60
2017-12-16T14:36:08.393Z,29.63
2017-12-16T14:38:36.766Z,31.77
2017-12-16T14:41:05.080Z,29.43
2017-12-16T14:43:33.441Z,32.73
2017-12-16T14:46:02.521Z,29.37
2017-12-16T14:48:30.889Z,34.93
2017-12-16T14:50:59.241Z,30.80
2017-12-16T14:53:27.600Z,31.13
2017-12-16T14:55:55.913Z,31.43
2017-12-16T14:58:24.257Z,32.20
2017-12-16T15:00:52.565Z,30.40
2017-12-16T15:03:20.892Z,30.13
2017-12-16T15:05:49.997Z,26.57
2017-12-16T15:08:18.330Z,32.87
2017-12-16T15:10:46.695Z,29.73
2017-12-16T15:13:15.781Z,24.87
2017-12-16T15:15:44.143Z,31.17
2017-12-16T15:18:12.522Z,27.60
2017-12-16T15:20:40.884Z,31.53
2017-12-16T15:23:09.311Z,32.77
2017-12-16T15:25:37.695Z,30.57
2017-12-16T15:28:06.029Z,32.60
2017-12-16T15:30:34.382Z,31.47
2017-12-16T15:33:02.750Z,34.00
2017-12-16T15:35:31.102Z,30.47
2017-12-16T15:37:59.465Z,33.20
2017-12-16T15:40:27.808Z,39.10
2017-12-16T15:42:56.156Z,40.50
2017-12-16T15:45:24.476Z,41.43
2017-12-16T15:47:52.865Z,31.03
2017-12-16T15:50:21.930Z,39.37
2017-12-16T15:52:51.093Z,35.87
2017-12-16T15:55:19.401Z,29.93
2017-12-16T15:57:47.744Z,31.07
2017-12-16T16:00:16.063Z,27.10
2017-12-16T16:02:45.239Z,26.27
2017-12-16T16:05:13.575Z,28.37
2017-12-16T16:07:41.951Z,27.90
2017-12-16T16:10:10.311Z,29.83
2017-12-16T16:12:39.425Z,31.30
2017-12-16T16:15:07.758Z,29.83
2017-12-16T16:17:36.152Z,41.13
2017-12-16T16:20:05.258Z,40.93
2017-12-16T16:22:34.369Z,27.93
2017-12-16T16:25:02.738Z,23.60
2017-12-16T16:27:31.842Z,26.93
2017-12-16T16:30:00.956Z,27.07
2017-12-16T16:32:29.347Z,32.10
2017-12-16T16:34:57.739Z,46.83
2017-12-16T16:37:26.114Z,31.60
2017-12-16T16:39:54.467Z,39.33
2017-12-16T16:42:22.817Z,27.77
2017-12-16T16:44:51.162Z,33.43
2017-12-16T16:47:23.146Z,33.80
2017-12-16T16:49:51.497Z,32.50
2017-12-16T16:52:19.837Z,36.43
2017-12-16T16:54:48.266Z,32.10
2017-12-16T16:57:16.642Z,30.60
2017-12-16T16:59:44.978Z,26.60
2017-12-16T17:02:14.080Z,32.27
2017-12-16T17:04:42.473Z,28.33
2017-12-16T17:07:10.790Z,24.53
2017-12-16T17:09:39.152Z,23.47
2017-12-16T17:12:07.489Z,28.17
2017-12-16T17:14:36.597Z,33.17
2017-12-16T17:17:07.925Z,25.83
2017-12-16T17:19:37.054Z,26.70
2017-12-16T17:22:05.416Z,22.17
2017-12-16T17:24:34.545Z,27.03
2017-12-16T17:27:02.872Z,24.90
2017-12-16T17:29:31.962Z,26.53
2017-12-16T17:32:01.079Z,28.93
2017-12-16T17:34:30.203Z,22.77
2017-12-16T17:36:59.381Z,25.87
2017-12-16T17:39:28.452Z,24.37
2017-12-16T17:41:57.579Z,20.23
2017-12-16T17:44:25.896Z,45.27
2017-12-16T17:46:54.275Z,53.17
2017-12-16T17:49:22.597Z,47.17
2017-12-16T17:51:51.739Z,42.90
2017-12-16T17:54:20.882Z,69.60
2017-12-16T17:57:04.141Z,46.33
2017-12-16T17:59:32.474Z,28.13
2017-12-16T18:02:00.861Z,15.67
2017-12-16T18:04:29.235Z,24.47
2017-12-16T18:06:58.587Z,17.63
2017-12-16T18:09:26.989Z,26.20
2017-12-16T18:11:55.351Z,26.80
2017-12-16T18:14:23.701Z,29.60
2017-12-16T18:16:52.824Z,23.77
2017-12-16T18:19:21.208Z,18.07
2017-12-16T18:21:49.585Z,13.17
2017-12-16T18:24:17.991Z,17.50
2017-12-16T18:26:46.306Z,13.80
2017-12-16T18:29:14.690Z,13.50
2017-12-16T18:31:43.799Z,12.77
2017-12-16T18:34:12.902Z,16.80
2017-12-16T18:36:41.219Z,16.77
2017-12-16T18:39:09.628Z,10.60
2017-12-16T18:41:38.018Z,11.73
2017-12-16T18:44:06.424Z,17.17
2017-12-16T18:46:34.777Z,16.37
2017-12-16T18:49:03.168Z,12.83
2017-12-16T18:51:31.572Z,10.20
2017-12-16T18:53:59.938Z,12.40
2017-12-16T18:56:29.081Z,13.57
2017-12-16T18:58:57.421Z,17.50
2017-12-16T19:01:26.525Z,15.47
2017-12-16T19:03:54.835Z,18.93
2017-12-16T19:06:23.178Z,14.93
2017-12-16T19:08:51.490Z,11.77
2017-12-16T19:11:19.897Z,10.23
2017-12-16T19:13:48.315Z,10.60
2017-12-16T19:16:17.452Z,10.30
2017-12-16T19:18:45.808Z,12.83
2017-12-16T19:21:14.189Z,9.40
2017-12-16T19:23:42.567Z,11.47
2017-12-16T19:26:10.973Z,8.67
2017-12-16T19:28:39.340Z,11.40
2017-12-16T19:31:07.674Z,13.83
2017-12-16T19:33:36.743Z,6.03
2017-12-16T19:36:05.132Z,9.27
2017-12-16T19:38:45.940Z,10.03
2017-12-16T19:41:14.362Z,5.80
2017-12-16T19:43:42.702Z,11.10
2017-12-16T19:46:11.005Z,8.83
2017-12-16T19:48:39.385Z,13.93
2017-12-16T19:51:07.737Z,6.87
2017-12-16T19:53:36.085Z,21.67
2017-12-16T19:56:05.225Z,10.00
2017-12-16T19:58:33.579Z,7.13
2017-12-16T20:01:02.705Z,9.00
2017-12-16T20:03:31.092Z,15.10
2017-12-16T20:05:59.448Z,7.80
2017-12-16T20:08:27.861Z,13.60
2017-12-16T20:10:56.269Z,11.30
2017-12-16T20:13:24.668Z,10.20
2017-12-16T20:15:53.825Z,8.37
2017-12-16T20:18:22.228Z,12.53
2017-12-16T20:20:50.672Z,6.63
2017-12-16T20:23:30.240Z,13.80
2017-12-16T20:25:58.684Z,11.90
2017-12-16T20:28:27.122Z,11.60
2017-12-16T20:30:56.332Z,15.70
2017-12-16T20:33:25.490Z,11.63
2017-12-16T20:35:53.902Z,13.90
2017-12-16T20:38:22.301Z,18.10
2017-12-16T20:40:51.481Z,11.00
2017-12-16T20:43:20.678Z,14.43
2017-12-16T20:45:49.057Z,10.37
2017-12-16T20:48:17.464Z,20.10
2017-12-16T20:50:45.850Z,12.67
2017-12-16T20:53:17.544Z,14.83
2017-12-16T20:55:45.900Z,14.20
2017-12-16T20:58:15.064Z,13.33
2017-12-16T21:00:44.277Z,13.03
2017-12-16T21:03:12.691Z,11.63
2017-12-16T21:05:41.094Z,10.60
2017-12-16T21:08:09.513Z,15.53
2017-12-16T21:10:37.904Z,15.27
2017-12-16T21:13:06.401Z,15.53
2017-12-16T21:15:34.786Z,15.33
2017-12-16T21:18:03.192Z,12.03
2017-12-16T21:20:31.570Z,15.17
2017-12-16T21:22:59.984Z,10.10
2017-12-16T21:25:29.146Z,7.23
2017-12-16T21:27:57.564Z,17.43
2017-12-16T21:30:25.955Z,11.27
2017-12-16T21:32:55.108Z,8.03
2017-12-16T21:35:23.487Z,12.40
2017-12-16T21:37:51.924Z,10.70
2017-12-16T21:40:20.305Z,12.00
2017-12-16T21:42:48.710Z,15.17
2017-12-16T21:45:17.094Z,11.73
2017-12-16T21:47:45.517Z,11.27
2017-12-16T21:50:14.668Z,10.93
2017-12-16T21:52:43.046Z,13.20
2017-12-16T21:55:11.465Z,12.07
2017-12-16T21:57:40.642Z,8.00
2017-12-16T22:00:09.028Z,15.00
2017-12-16T22:02:38.229Z,10.83
2017-12-16T22:05:06.644Z,20.63
2017-12-16T22:07:35.848Z,12.97
2017-12-16T22:10:04.967Z,10.53
2017-12-16T22:12:33.509Z,14.37
2017-12-16T22:15:01.969Z,16.60
2017-12-16T22:17:30.391Z,13.80
2017-12-16T22:19:59.554Z,13.30
2017-12-16T22:22:27.960Z,12.50
2017-12-16T22:24:57.111Z,12.93
2017-12-16T22:27:25.522Z,11.00
2017-12-16T22:29:54.111Z,14.80
2017-12-16T22:32:22.546Z,15.37
2017-12-16T22:34:51.739Z,21.57
2017-12-16T22:37:20.146Z,15.23
2017-12-16T22:39:48.553Z,10.23
2017-12-16T22:42:17.729Z,19.33
2017-12-16T22:44:46.983Z,13.67
2017-12-16T22:47:15.394Z,14.97
2017-12-16T22:49:43.813Z,16.90
2017-12-16T22:52:14.266Z,22.20
2017-12-16T22:54:42.683Z,16.03
2017-12-16T22:57:11.054Z,12.07
2017-12-16T22:59:39.496Z,22.23
2017-12-16T23:02:08.622Z,14.93
2017-12-16T23:04:37.054Z,8.80
2017-12-16T23:07:06.214Z,14.10
2017-12-16T23:09:34.642Z,18.27
2017-12-16T23:12:03.775Z,8.90
2017-12-16T23:14:32.271Z,16.47
2017-12-16T23:17:00.699Z,16.33
2017-12-16T23:19:29.114Z,10.90
2017-12-16T23:21:57.550Z,13.17
2017-12-16T23:24:26.724Z,11.67
2017-12-16T23:26:55.174Z,9.80
2017-12-16T23:29:23.585Z,10.33
2017-12-16T23:31:51.985Z,8.23
2017-12-16T23:34:21.130Z,12.53
2017-12-16T23:36:49.526Z,11.30
2017-12-16T23:39:17.929Z,8.23
2017-12-16T23:41:47.123Z,15.53
2017-12-16T23:44:15.518Z,8.00
2017-12-16T23:46:44.760Z,11.33
2017-12-16T23:49:13.173Z,11.43
2017-12-16T23:51:41.503Z,10.90
2017-12-16T23:54:10.632Z,10.37
2017-12-16T23:56:38.958Z,12.37
2017-12-16T23:59:10.027Z,8.50
